Time;durP1;ratioP1;P1;durP2;ratioP2;P2;SDS_P1;SDS_P2;PMS_P1;PMS_P2;Temp;Humidity;BMP_temperature;BMP_pressure;BME280_temperature;BME280_humidity;BME280_pressure;Samples;Min_cycle;Max_cycle;Signal;HPM_P1;HPM_P2
2021/05/10 00:01:33;;;;;;;1.75;1.30;;;17.00;84.50;;;;;;5110277;27;27460;-62
2021/05/10 00:04:19;;;;;;;1.60;1.30;;;17.00;83.30;;;;;;5125176;27;27444;-62
2021/05/10 00:07:07;;;;;;;1.45;1.35;;;17.00;84.10;;;;;;5103145;28;27454;-62
2021/05/10 00:09:54;;;;;;;1.52;1.30;;;17.00;84.10;;;;;;5104574;28;27410;-62
2021/05/10 00:12:40;;;;;;;1.77;1.60;;;16.90;84.40;;;;;;5104776;28;27316;-62
2021/05/10 00:15:27;;;;;;;2.88;1.30;;;16.90;85.90;;;;;;5104506;28;27382;-62
2021/05/10 00:18:13;;;;;;;2.33;1.98;;;17.00;84.90;;;;;;5104667;28;27431;-63
2021/05/10 00:21:00;;;;;;;1.95;1.67;;;17.00;85.10;;;;;;5104382;28;27538;-62
2021/05/10 00:23:46;;;;;;;1.13;1.02;;;16.90;84.40;;;;;;5103646;28;27450;-62
2021/05/10 00:26:33;;;;;;;2.05;1.40;;;16.90;84.50;;;;;;5103364;28;27328;-62
2021/05/10 00:29:20;;;;;;;3.80;2.03;;;16.90;85.00;;;;;;5104417;28;27370;-62
2021/05/10 00:32:06;;;;;;;1.83;1.70;;;16.90;84.20;;;;;;5103698;28;27479;-61
2021/05/10 00:34:52;;;;;;;2.55;1.77;;;16.90;83.80;;;;;;5103432;28;27504;-62
2021/05/10 00:37:39;;;;;;;1.77;1.45;;;16.80;84.10;;;;;;5100289;28;27463;-62
2021/05/10 00:40:27;;;;;;;4.03;1.30;;;16.80;84.20;;;;;;5099971;28;27485;-62
2021/05/10 00:43:13;;;;;;;1.52;1.40;;;16.80;85.20;;;;;;5099989;28;27340;-62
2021/05/10 00:46:00;;;;;;;1.73;1.63;;;16.70;85.50;;;;;;5104295;28;26943;-62
2021/05/10 00:48:46;;;;;;;2.30;1.67;;;16.70;85.20;;;;;;5103449;28;27383;-62
2021/05/10 00:51:33;;;;;;;1.73;1.63;;;16.70;85.40;;;;;;5104165;28;28005;-61
2021/05/10 00:54:20;;;;;;;4.90;1.40;;;16.70;84.90;;;;;;5102629;28;27478;-62
2021/05/10 00:57:06;;;;;;;1.55;1.45;;;16.60;85.70;;;;;;5103854;28;27479;-62
2021/05/10 00:59:52;;;;;;;1.98;1.70;;;16.60;85.40;;;;;;5102751;28;27452;-62
2021/05/10 01:02:39;;;;;;;2.25;1.30;;;16.50;85.20;;;;;;5103134;28;27858;-62
2021/05/10 01:05:25;;;;;;;2.55;1.50;;;16.50;85.50;;;;;;5103325;27;27543;-62
2021/05/10 01:08:12;;;;;;;2.08;1.50;;;16.40;85.60;;;;;;5103176;28;27298;-62
2021/05/10 01:10:58;;;;;;;2.08;1.55;;;16.40;85.60;;;;;;5103822;28;27423;-62
2021/05/10 01:13:45;;;;;;;2.83;1.77;;;16.40;84.80;;;;;;5103766;28;27423;-62
2021/05/10 01:16:31;;;;;;;3.67;1.58;;;16.30;85.40;;;;;;5102989;28;27601;-62
2021/05/10 01:19:18;;;;;;;2.47;1.70;;;16.30;86.50;;;;;;5103499;28;27332;-62
2021/05/10 01:22:05;;;;;;;1.95;1.67;;;16.30;86.00;;;;;;5088100;28;27384;-62
2021/05/10 01:24:51;;;;;;;4.22;1.73;;;16.20;85.90;;;;;;5102634;28;27383;-62
2021/05/10 01:27:38;;;;;;;3.00;1.80;;;16.20;85.60;;;;;;5103751;28;27437;-62
2021/05/10 01:30:26;;;;;;;6.45;1.70;;;16.20;86.30;;;;;;5102650;28;27522;-62
2021/05/10 01:33:12;;;;;;;1.77;1.50;;;16.10;86.20;;;;;;5102525;28;27351;-62
2021/05/10 01:35:59;;;;;;;2.38;1.58;;;16.10;86.90;;;;;;5102468;28;27344;-62
2021/05/10 01:38:45;;;;;;;2.67;1.60;;;16.10;86.60;;;;;;5088200;28;27401;-62
2021/05/10 01:41:33;;;;;;;1.75;1.50;;;16.00;88.00;;;;;;5085168;28;27478;-62
2021/05/10 01:44:19;;;;;;;1.67;1.33;;;16.00;88.00;;;;;;5102621;28;27423;-62
2021/05/10 01:47:06;;;;;;;1.83;1.58;;;15.90;87.60;;;;;;5103330;28;27446;-62
2021/05/10 01:49:52;;;;;;;3.50;1.77;;;15.90;86.90;;;;;;5087839;28;27535;-62
2021/05/10 01:52:39;;;;;;;3.97;1.55;;;15.90;86.90;;;;;;5103452;28;27447;-62
2021/05/10 01:55:26;;;;;;;2.58;1.52;;;15.90;87.50;;;;;;5103093;28;27386;-62
2021/05/10 01:58:12;;;;;;;1.75;1.65;;;15.90;88.50;;;;;;5103196;28;27996;-61
2021/05/10 02:00:59;;;;;;;2.03;1.70;;;15.90;87.60;;;;;;5102053;28;27520;-62
2021/05/10 02:03:46;;;;;;;2.17;1.85;;;15.80;88.50;;;;;;5103299;28;27495;-62
2021/05/10 02:06:32;;;;;;;4.45;1.98;;;15.80;88.50;;;;;;5101661;28;27431;-61
2021/05/10 02:09:24;;;;;;;1.98;1.80;;;15.80;87.80;;;;;;5102894;28;27356;-62
2021/05/10 02:12:10;;;;;;;2.58;2.17;;;15.80;87.10;;;;;;5102799;28;27450;-62
2021/05/10 02:14:56;;;;;;;3.05;1.90;;;15.80;87.40;;;;;;5103196;28;27421;-61
2021/05/10 02:17:43;;;;;;;3.45;1.80;;;15.80;88.30;;;;;;5105321;28;27383;-62
2021/05/10 02:20:30;;;;;;;2.55;2.13;;;15.80;87.30;;;;;;5106028;28;27400;-62
2021/05/10 02:23:23;;;;;;;2.58;1.60;;;15.80;87.70;;;;;;5102190;28;27436;-61
2021/05/10 02:26:11;;;;;;;1.60;1.50;;;15.80;87.00;;;;;;5102505;28;27347;-62
2021/05/10 02:29:01;;;;;;;2.05;1.73;;;15.70;87.60;;;;;;5106457;28;27361;-62
2021/05/10 02:31:48;;;;;;;3.63;1.95;;;15.70;87.10;;;;;;5091951;28;27336;-61
2021/05/10 02:34:34;;;;;;;4.72;1.67;;;15.70;87.40;;;;;;5106065;28;27559;-62
2021/05/10 02:37:21;;;;;;;2.03;1.83;;;15.70;87.40;;;;;;5105622;28;27343;-62
2021/05/10 02:40:08;;;;;;;2.20;1.52;;;15.60;86.60;;;;;;5106050;28;27416;-63
2021/05/10 02:42:55;;;;;;;4.32;2.15;;;15.60;87.50;;;;;;5105955;28;27497;-62
2021/05/10 02:45:41;;;;;;;2.03;1.80;;;15.60;88.00;;;;;;5101827;28;27487;-62
2021/05/10 02:48:27;;;;;;;2.03;1.83;;;15.50;88.20;;;;;;5106208;28;27348;-60
2021/05/10 02:51:13;;;;;;;2.88;2.00;;;15.50;88.30;;;;;;5101876;28;27371;-61
2021/05/10 02:54:00;;;;;;;3.38;1.88;;;15.50;88.20;;;;;;5106086;28;27382;-61
2021/05/10 02:56:46;;;;;;;3.40;1.55;;;15.50;88.00;;;;;;5101945;28;27423;-62
2021/05/10 02:59:33;;;;;;;2.05;1.70;;;15.40;87.90;;;;;;5087170;28;27439;-62
2021/05/10 03:02:20;;;;;;;3.58;1.90;;;15.40;88.20;;;;;;5104842;28;27416;-62
2021/05/10 03:05:08;;;;;;;3.47;1.90;;;15.40;88.50;;;;;;5101716;28;27837;-62
2021/05/10 03:07:54;;;;;;;2.75;2.17;;;15.40;87.80;;;;;;5103695;28;27343;-61
2021/05/10 03:10:40;;;;;;;3.28;1.48;;;15.40;88.20;;;;;;5105317;28;27478;-62
2021/05/10 03:13:27;;;;;;;2.40;1.88;;;15.30;88.30;;;;;;5105775;28;27320;-61
2021/05/10 03:16:13;;;;;;;6.70;1.67;;;15.30;88.30;;;;;;5105666;28;27485;-62
2021/05/10 03:18:59;;;;;;;3.67;1.83;;;15.30;88.00;;;;;;5090647;28;27540;-61
2021/05/10 03:21:46;;;;;;;3.90;2.13;;;15.30;89.90;;;;;;5104598;28;27608;-62
2021/05/10 03:24:32;;;;;;;2.58;2.00;;;15.20;89.20;;;;;;5105423;28;27403;-62
2021/05/10 03:27:19;;;;;;;1.85;1.63;;;15.20;90.10;;;;;;5104714;27;27951;-61
2021/05/10 03:30:10;;;;;;;2.13;1.75;;;15.20;89.60;;;;;;5105532;28;27386;-62
2021/05/10 03:32:57;;;;;;;1.92;1.70;;;15.20;89.90;;;;;;5104388;28;27435;-61
2021/05/10 03:35:43;;;;;;;2.35;1.70;;;15.20;90.30;;;;;;5104328;28;27352;-62
2021/05/10 03:38:29;;;;;;;1.52;1.40;;;15.20;90.00;;;;;;5104138;28;27982;-62
2021/05/10 03:41:16;;;;;;;3.10;2.30;;;15.20;90.20;;;;;;5104536;28;27467;-61
2021/05/10 03:44:02;;;;;;;3.75;2.47;;;15.20;89.30;;;;;;5104347;28;27423;-62
2021/05/10 03:46:49;;;;;;;2.97;1.95;;;15.20;90.10;;;;;;5105273;28;27482;-62
2021/05/10 03:49:35;;;;;;;2.28;2.00;;;15.20;90.10;;;;;;5105176;28;28039;-61
2021/05/10 03:52:21;;;;;;;2.70;2.03;;;15.20;89.50;;;;;;5105142;28;27474;-61
2021/05/10 03:55:09;;;;;;;2.25;1.80;;;15.20;90.00;;;;;;5105120;28;27365;-62
2021/05/10 03:57:56;;;;;;;5.68;2.00;;;15.20;90.30;;;;;;5103951;28;27395;-62
2021/05/10 04:00:42;;;;;;;4.15;2.03;;;15.20;90.30;;;;;;5089493;28;27458;-61
2021/05/10 04:03:35;;;;;;;3.05;2.28;;;15.20;89.90;;;;;;5104778;28;27435;-61
2021/05/10 04:09:50;;;;;;;3.55;1.95;;;15.20;90.40;;;;;;5087543;27;27394;-61
2021/05/10 04:15:42;;;;;;;2.08;1.88;;;15.20;90.40;;;;;;5125418;27;27475;-61
2021/05/10 04:18:28;;;;;;;4.95;1.77;;;15.20;90.30;;;;;;5110023;27;27414;-61
2021/05/10 04:21:15;;;;;;;2.65;2.45;;;15.20;90.10;;;;;;5109834;27;27331;-62
2021/05/10 04:24:02;;;;;;;2.60;2.10;;;15.20;89.50;;;;;;5124910;27;27427;-61
2021/05/10 04:26:50;;;;;;;2.65;1.98;;;15.30;89.80;;;;;;5125080;27;27491;-61
2021/05/10 04:29:36;;;;;;;2.30;2.05;;;15.20;90.50;;;;;;5095452;27;27412;-60
2021/05/10 04:32:23;;;;;;;2.50;2.30;;;15.30;90.50;;;;;;5109849;27;27340;-61
2021/05/10 04:35:11;;;;;;;2.45;2.00;;;15.30;90.50;;;;;;5124415;27;27360;-61
2021/05/10 04:37:58;;;;;;;3.58;2.50;;;15.30;90.10;;;;;;5109954;27;27491;-61
2021/05/10 04:40:44;;;;;;;2.17;1.73;;;15.30;89.10;;;;;;5091142;27;27490;-61
2021/05/10 04:43:31;;;;;;;4.50;1.70;;;15.30;89.50;;;;;;5091662;27;27466;-61
2021/05/10 04:46:18;;;;;;;2.25;2.05;;;15.40;90.40;;;;;;5124570;27;27973;-61
2021/05/10 04:49:05;;;;;;;3.58;1.85;;;15.40;89.60;;;;;;5109745;27;27313;-61
2021/05/10 04:51:52;;;;;;;4.45;2.17;;;15.50;88.80;;;;;;5124602;27;27336;-61
2021/05/10 04:54:39;;;;;;;5.80;2.13;;;15.50;85.10;;;;;;5109631;27;27473;-61
2021/05/10 04:57:26;;;;;;;3.75;2.08;;;15.50;84.70;;;;;;5109400;27;27414;-60
2021/05/10 05:00:15;;;;;;;5.32;2.03;;;15.60;82.80;;;;;;5124139;27;27375;-60
2021/05/10 05:03:01;;;;;;;2.75;2.20;;;15.60;83.30;;;;;;5105942;27;27332;-61
2021/05/10 05:05:48;;;;;;;4.10;2.28;;;15.60;83.00;;;;;;5124684;27;27418;-61
2021/05/10 05:08:34;;;;;;;4.03;2.50;;;15.70;83.30;;;;;;5068713;28;27460;-61
2021/05/10 05:11:21;;;;;;;3.25;2.05;;;15.70;86.60;;;;;;5082622;28;27561;-61
2021/05/10 05:14:08;;;;;;;4.45;2.70;;;15.70;81.90;;;;;;5065209;28;27060;-61
2021/05/10 05:16:54;;;;;;;3.58;2.20;;;15.70;81.00;;;;;;5080197;28;27361;-61
2021/05/10 05:19:41;;;;;;;5.13;2.15;;;15.70;80.90;;;;;;5083242;28;27945;-61
2021/05/10 05:22:27;;;;;;;3.67;2.13;;;15.70;81.00;;;;;;5083361;28;27409;-61
2021/05/10 05:25:14;;;;;;;2.30;2.08;;;15.70;81.10;;;;;;5083302;28;27434;-61
2021/05/10 05:28:01;;;;;;;3.03;2.03;;;15.80;80.90;;;;;;5079818;28;27412;-61
2021/05/10 05:30:47;;;;;;;6.63;2.75;;;15.80;80.40;;;;;;5082409;28;27998;-60
2021/05/10 05:33:34;;;;;;;4.32;2.40;;;15.80;80.90;;;;;;5065006;28;27394;-61
2021/05/10 05:36:20;;;;;;;3.97;2.40;;;15.80;80.80;;;;;;5082111;28;27407;-61
2021/05/10 05:39:08;;;;;;;5.40;2.80;;;15.80;80.10;;;;;;5082283;28;27422;-61
2021/05/10 05:41:54;;;;;;;3.67;2.92;;;15.80;80.50;;;;;;5078991;28;27947;-61
2021/05/10 05:44:45;;;;;;;4.32;3.40;;;15.80;80.70;;;;;;5079049;28;27410;-61
2021/05/10 05:47:35;;;;;;;6.50;3.83;;;15.90;80.40;;;;;;5083470;28;27503;-62
2021/05/10 05:50:24;;;;;;;10.02;4.88;;;15.90;80.60;;;;;;5080755;28;26873;-61
2021/05/10 05:53:12;;;;;;;13.10;5.28;;;15.90;81.20;;;;;;5083441;28;27325;-61
2021/05/10 05:56:00;;;;;;;10.90;5.07;;;16.00;81.00;;;;;;5086345;28;27487;-61
2021/05/10 05:58:52;;;;;;;16.85;5.28;;;16.10;80.90;;;;;;5086966;28;27369;-61
2021/05/10 06:01:39;;;;;;;14.70;6.50;;;16.20;81.80;;;;;;5087588;28;27422;-62
2021/05/10 06:04:28;;;;;;;12.27;6.35;;;16.20;81.90;;;;;;5083515;28;27469;-62
2021/05/10 06:07:16;;;;;;;8.73;3.53;;;16.30;82.00;;;;;;5097430;28;27353;-61
2021/05/10 06:10:03;;;;;;;4.78;3.22;;;16.40;82.80;;;;;;5106890;28;27473;-61
2021/05/10 06:12:52;;;;;;;4.50;3.03;;;16.40;82.30;;;;;;5107819;28;27403;-61
2021/05/10 06:15:39;;;;;;;9.02;3.67;;;16.40;82.80;;;;;;5075332;28;27426;-61
2021/05/10 06:18:31;;;;;;;7.35;5.28;;;16.50;83.40;;;;;;5107368;28;27402;-63
2021/05/10 06:21:19;;;;;;;13.60;5.93;;;16.50;83.60;;;;;;5089664;28;26952;-61
2021/05/10 06:24:06;;;;;;;12.45;5.13;;;16.60;84.00;;;;;;5106296;28;27585;-61
2021/05/10 06:26:56;;;;;;;9.15;5.80;;;16.70;84.80;;;;;;5107305;28;27868;-62
2021/05/10 06:29:45;;;;;;;8.18;4.70;;;16.80;85.00;;;;;;5107564;28;27367;-62
2021/05/10 06:32:31;;;;;;;6.60;4.25;;;16.80;85.00;;;;;;5106858;28;27372;-62
2021/05/10 06:35:19;;;;;;;9.85;4.00;;;17.00;85.20;;;;;;5106772;28;27542;-62
2021/05/10 06:38:06;;;;;;;6.20;4.43;;;17.00;85.20;;;;;;5106362;28;27905;-62
2021/05/10 06:40:53;;;;;;;5.70;3.53;;;17.10;84.80;;;;;;5106388;28;27479;-62
2021/05/10 06:43:39;;;;;;;10.80;3.42;;;17.20;85.10;;;;;;5103221;28;27345;-62
2021/05/10 06:46:27;;;;;;;7.97;3.00;;;17.30;85.00;;;;;;5107301;28;27379;-62
2021/05/10 06:49:17;;;;;;;5.78;4.43;;;17.30;84.50;;;;;;5102921;28;27424;-62
2021/05/10 06:52:08;;;;;;;5.90;3.58;;;17.40;84.40;;;;;;5106970;28;27458;-63
2021/05/10 06:55:00;;;;;;;6.10;3.53;;;17.50;84.50;;;;;;5106266;28;27466;-63
2021/05/10 06:57:51;;;;;;;3.03;2.72;;;17.60;83.60;;;;;;5102854;28;27433;-62
2021/05/10 07:00:38;;;;;;;4.40;3.40;;;17.70;82.60;;;;;;5106844;28;27425;-63
2021/05/10 07:03:26;;;;;;;9.38;3.75;;;17.90;81.70;;;;;;5105494;28;27334;-63
2021/05/10 07:06:16;;;;;;;5.15;3.25;;;18.00;81.40;;;;;;5088694;27;27424;-63
2021/05/10 07:09:04;;;;;;;6.35;3.33;;;18.10;80.60;;;;;;5112577;27;26941;-62
2021/05/10 07:12:28;;;;;;;5.30;3.38;;;18.20;80.70;;;;;;5111890;27;27352;-62
2021/05/10 07:15:45;;;;;;;8.02;3.25;;;18.70;79.90;;;;;;5123890;27;27457;-63
2021/05/10 07:18:36;;;;;;;7.65;3.00;;;19.40;79.10;;;;;;5123904;27;27463;-64
2021/05/10 07:21:26;;;;;;;6.10;3.72;;;20.00;78.00;;;;;;5111938;27;27375;-64
2021/05/10 07:24:15;;;;;;;3.65;2.80;;;20.40;77.50;;;;;;5112309;27;27494;-63
2021/05/10 07:27:06;;;;;;;3.33;2.45;;;20.40;74.80;;;;;;5108334;27;27488;-64
2021/05/10 07:29:59;;;;;;;6.57;2.40;;;20.50;73.50;;;;;;5108332;27;27415;-64
2021/05/10 07:33:07;;;;;;;4.03;2.33;;;20.60;74.20;;;;;;5108311;27;27369;-64
2021/05/10 07:36:01;;;;;;;5.70;3.42;;;20.60;73.40;;;;;;5127056;27;27403;-63
2021/05/10 07:39:05;;;;;;;6.95;5.10;;;20.50;72.80;;;;;;5108184;27;27471;-64
2021/05/10 07:46:02;;;;;;;7.65;2.60;;;20.40;74.80;;;;;;5125450;27;27639;-64
2021/05/10 07:49:13;;;;;;;6.90;2.35;;;20.20;75.90;;;;;;5111641;27;27360;-64
2021/05/10 07:52:04;;;;;;;6.10;2.70;;;20.00;76.80;;;;;;5107982;27;27486;-64
2021/05/10 07:54:53;;;;;;;4.45;2.70;;;19.90;78.30;;;;;;5093819;27;27415;-63
2021/05/10 12:59:06;;;;;;;3.45;1.17;;;22.20;67.60;;;;;;2686904;28;29409;-65
2021/05/10 13:02:32;;;;;;;3.28;1.02;;;22.20;67.70;;;;;;5114255;27;27425;-67
2021/05/10 13:05:47;;;;;;;1.27;1.10;;;22.30;67.30;;;;;;5112155;27;27884;-65
2021/05/10 13:12:29;;;;;;;2.00;1.35;;;22.40;68.60;;;;;;5125387;27;27321;-65
2021/05/10 13:16:19;;;;;;;2.45;1.08;;;22.50;69.20;;;;;;5110459;27;27411;-65
2021/05/10 13:19:47;;;;;;;1.10;0.90;;;22.50;69.20;;;;;;5110855;27;27367;-66
2021/05/10 13:32:44;;;;;;;3.75;1.38;;;22.70;66.00;;;;;;5106680;27;27961;-61
2021/05/10 13:35:58;;;;;;;4.70;1.45;;;22.70;61.40;;;;;;5092544;27;27487;-65
2021/05/10 13:38:51;;;;;;;1.05;0.80;;;22.70;61.80;;;;;;5092433;27;27463;-67
2021/05/10 13:41:55;;;;;;;2.42;0.90;;;22.60;61.00;;;;;;5121698;27;27639;-68
2021/05/10 13:44:48;;;;;;;1.55;1.00;;;22.60;61.50;;;;;;5110221;27;27525;-67
2021/05/10 13:47:37;;;;;;;3.13;0.60;;;22.50;63.90;;;;;;5092178;27;27392;-67
2021/05/10 13:54:38;;;;;;;1.90;0.75;;;22.50;63.10;;;;;;5106143;27;27511;-67
2021/05/10 13:57:37;;;;;;;2.38;1.13;;;22.40;63.70;;;;;;5124573;27;27517;-67
2021/05/10 14:00:35;;;;;;;3.78;0.90;;;22.40;63.10;;;;;;5100280;28;27409;-67
2021/05/10 14:03:38;;;;;;;3.25;1.17;;;22.40;62.70;;;;;;5086557;28;27309;-67
2021/05/10 14:11:15;;;;;;;8.60;0.95;;;22.40;63.80;;;;;;5100730;28;27304;-67
2021/05/10 14:14:00;;;;;;;4.43;1.13;;;22.40;64.80;;;;;;5107869;28;27474;-67
2021/05/10 14:16:45;;;;;;;1.42;0.60;;;22.40;66.00;;;;;;5104673;28;27461;-67
2021/05/10 14:19:31;;;;;;;1.63;0.75;;;22.40;66.00;;;;;;5107572;28;27410;-67
2021/05/10 14:22:16;;;;;;;2.45;0.60;;;22.40;66.80;;;;;;5107494;28;27411;-67
2021/05/10 14:25:01;;;;;;;3.13;0.52;;;22.50;66.70;;;;;;5107691;28;27515;-67
2021/05/10 14:27:46;;;;;;;0.30;0.30;;;22.50;65.40;;;;;;5107814;28;27411;-68
2021/05/10 14:30:31;;;;;;;1.05;0.63;;;22.50;63.30;;;;;;5107104;28;27402;-68
2021/05/10 14:33:16;;;;;;;1.27;0.50;;;22.50;62.60;;;;;;5107588;28;27979;-68
2021/05/10 14:36:01;;;;;;;0.75;0.30;;;22.50;62.40;;;;;;5106838;28;27428;-68
2021/05/10 14:38:46;;;;;;;0.50;0.40;;;22.40;62.10;;;;;;5107299;28;27411;-68
2021/05/10 14:41:30;;;;;;;0.43;0.38;;;22.40;61.40;;;;;;5107164;28;27403;-70
2021/05/10 14:44:15;;;;;;;0.50;0.50;;;22.30;62.20;;;;;;5103486;28;27458;-68
2021/05/10 14:47:00;;;;;;;1.52;0.47;;;22.30;62.60;;;;;;5107078;28;27418;-68
2021/05/10 14:49:45;;;;;;;2.85;0.52;;;22.30;63.50;;;;;;5107448;28;27412;-68
2021/05/10 14:52:30;;;;;;;0.45;0.30;;;22.30;62.10;;;;;;5107345;28;27440;-68
2021/05/10 14:55:15;;;;;;;1.08;0.50;;;22.30;62.00;;;;;;5107223;28;27401;-68
2021/05/10 14:58:01;;;;;;;0.88;0.40;;;22.30;62.60;;;;;;5106475;28;27307;-68
2021/05/10 15:00:46;;;;;;;0.30;0.30;;;22.20;61.50;;;;;;5117365;27;27465;-68
2021/05/10 15:03:31;;;;;;;0.45;0.20;;;22.20;61.40;;;;;;5127717;27;27438;-68
2021/05/10 15:06:17;;;;;;;0.38;0.30;;;22.30;61.70;;;;;;5127699;27;27513;-67
2021/05/10 15:09:03;;;;;;;0.80;0.30;;;22.30;60.60;;;;;;5127321;27;27407;-68
2021/05/10 15:11:47;;;;;;;0.32;0.32;;;22.30;61.00;;;;;;5108725;27;27446;-68
2021/05/10 15:14:34;;;;;;;0.17;0.17;;;22.30;62.40;;;;;;5127590;27;27464;-68
2021/05/10 15:17:19;;;;;;;0.98;0.20;;;22.30;62.00;;;;;;5127494;27;27336;-68
2021/05/10 15:20:05;;;;;;;0.50;0.30;;;22.30;62.30;;;;;;5127135;27;27415;-68
2021/05/10 15:22:50;;;;;;;0.17;0.15;;;22.30;61.70;;;;;;5096941;27;27401;-68
2021/05/10 15:25:35;;;;;;;1.67;0.40;;;22.20;60.60;;;;;;5126707;27;27390;-68
2021/05/10 15:28:20;;;;;;;0.40;0.40;;;22.20;60.70;;;;;;5111641;27;27348;-68
2021/05/10 15:31:05;;;;;;;0.52;0.10;;;22.20;61.80;;;;;;5111723;27;27349;-68
2021/05/10 15:33:51;;;;;;;1.27;0.40;;;22.10;62.00;;;;;;5127036;27;27334;-68
2021/05/10 15:36:38;;;;;;;0.32;0.30;;;22.10;62.10;;;;;;5127231;27;27395;-70
2021/05/10 15:39:23;;;;;;;3.25;0.40;;;22.10;62.80;;;;;;5126840;27;27435;-67
2021/05/10 15:42:08;;;;;;;2.80;0.65;;;22.00;61.10;;;;;;5123149;27;27527;-67
2021/05/10 15:45:01;;;;;;;0.40;0.30;;;21.90;61.30;;;;;;5127208;27;27490;-67
2021/05/10 15:47:47;;;;;;;0.60;0.30;;;21.90;62.50;;;;;;5127036;27;27356;-67
2021/05/10 15:50:32;;;;;;;1.02;0.30;;;21.80;62.10;;;;;;5126682;27;27387;-68
2021/05/10 15:53:17;;;;;;;2.45;0.43;;;21.90;63.40;;;;;;5126363;27;27490;-67
2021/05/10 15:56:03;;;;;;;2.83;0.50;;;21.80;61.60;;;;;;5111382;27;27423;-67
2021/05/10 15:58:48;;;;;;;1.10;0.40;;;21.80;61.40;;;;;;5111825;27;27403;-67
2021/05/10 16:01:33;;;;;;;0.50;0.50;;;21.80;62.30;;;;;;5104223;28;27512;-68
2021/05/10 16:04:17;;;;;;;1.90;0.40;;;21.70;61.70;;;;;;5106203;28;27604;-67
2021/05/10 16:07:03;;;;;;;0.35;0.30;;;21.70;61.40;;;;;;5106296;28;27339;-67
2021/05/10 16:09:47;;;;;;;3.30;0.30;;;21.60;61.30;;;;;;5106179;28;27354;-67
2021/05/10 16:12:32;;;;;;;1.55;0.40;;;21.60;62.70;;;;;;5105753;28;27993;-67
2021/05/10 16:15:18;;;;;;;1.02;0.50;;;21.50;63.00;;;;;;5101935;28;27329;-67
2021/05/10 16:18:03;;;;;;;0.20;0.20;;;21.50;62.20;;;;;;5105720;28;27422;-70
2021/05/10 16:20:49;;;;;;;0.73;0.35;;;21.40;63.30;;;;;;5104490;28;27426;-67
2021/05/10 16:23:33;;;;;;;1.13;0.60;;;21.50;62.20;;;;;;5105804;28;27445;-66
2021/05/10 16:26:19;;;;;;;0.68;0.30;;;21.40;62.30;;;;;;5101748;28;27479;-66
2021/05/10 16:29:05;;;;;;;0.63;0.28;;;21.30;63.30;;;;;;5105782;28;27419;-66
2021/05/10 16:31:50;;;;;;;0.75;0.38;;;21.30;63.00;;;;;;5102236;28;27410;-66
2021/05/10 16:34:34;;;;;;;0.40;0.30;;;21.20;63.00;;;;;;5104940;28;27524;-66
2021/05/10 16:37:20;;;;;;;0.35;0.35;;;21.10;62.60;;;;;;5105263;28;27578;-66
2021/05/10 16:40:06;;;;;;;0.20;0.20;;;21.10;62.30;;;;;;5105472;28;27439;-66
2021/05/10 16:42:50;;;;;;;0.90;0.45;;;21.00;62.90;;;;;;5105561;28;27383;-66
2021/05/10 16:45:37;;;;;;;0.73;0.40;;;21.00;62.40;;;;;;5105224;28;28004;-66
2021/05/10 16:48:22;;;;;;;0.73;0.45;;;20.90;63.00;;;;;;5104906;28;27549;-66
2021/05/10 16:51:07;;;;;;;0.70;0.40;;;20.90;63.60;;;;;;5105488;28;27518;-66
2021/05/10 16:53:52;;;;;;;0.75;0.40;;;20.80;62.40;;;;;;5105357;28;27463;-66
2021/05/10 16:56:37;;;;;;;1.13;0.30;;;20.70;63.00;;;;;;5105353;28;27485;-66
2021/05/10 16:59:23;;;;;;;0.63;0.30;;;20.70;62.30;;;;;;5105059;28;27465;-65
2021/05/10 17:02:08;;;;;;;0.90;0.40;;;20.70;63.30;;;;;;5105164;28;27512;-66
2021/05/10 17:04:53;;;;;;;3.67;0.50;;;20.60;64.00;;;;;;5105427;28;27371;-64
2021/05/10 17:07:38;;;;;;;2.92;1.58;;;20.60;62.70;;;;;;5105064;28;27379;-64
2021/05/10 17:10:23;;;;;;;1.50;0.30;;;20.60;62.60;;;;;;5105202;28;27404;-65
2021/05/10 17:13:08;;;;;;;0.35;0.35;;;20.60;62.80;;;;;;5105038;28;27390;-64
2021/05/10 17:15:53;;;;;;;0.40;0.40;;;20.60;62.90;;;;;;5104837;28;27414;-64
2021/05/10 17:18:38;;;;;;;2.03;0.40;;;20.60;62.80;;;;;;5104234;28;27434;-64
2021/05/10 17:21:23;;;;;;;0.38;0.28;;;20.60;62.80;;;;;;5101632;28;27395;-64
2021/05/10 17:24:08;;;;;;;0.30;0.30;;;20.60;62.40;;;;;;5101436;28;27450;-64
2021/05/10 17:26:53;;;;;;;0.95;0.40;;;20.50;62.80;;;;;;5104897;28;27329;-64
2021/05/10 17:29:38;;;;;;;0.32;0.30;;;20.50;63.30;;;;;;5104560;28;28030;-64
2021/05/10 17:32:23;;;;;;;0.45;0.20;;;20.50;62.50;;;;;;5104839;28;27458;-64
2021/05/10 17:35:08;;;;;;;1.08;0.45;;;20.50;62.80;;;;;;5104809;28;27356;-67
2021/05/10 17:37:54;;;;;;;1.65;0.60;;;20.50;63.20;;;;;;5104710;28;27395;-64
2021/05/10 17:40:41;;;;;;;0.55;0.40;;;20.40;63.70;;;;;;5104143;28;27439;-64
2021/05/10 17:43:26;;;;;;;0.55;0.32;;;20.50;63.40;;;;;;5103665;28;27360;-64
2021/05/10 17:46:12;;;;;;;0.47;0.40;;;20.40;63.70;;;;;;5100797;28;27412;-64
2021/05/10 17:48:57;;;;;;;0.60;0.20;;;20.40;64.00;;;;;;5104799;28;27373;-64
2021/05/10 17:51:42;;;;;;;0.10;0.10;;;20.40;63.70;;;;;;5107941;28;27473;-64
2021/05/10 17:54:27;;;;;;;1.23;0.40;;;20.30;63.50;;;;;;5107892;28;27616;-64
2021/05/10 17:57:12;;;;;;;1.52;0.60;;;20.20;63.30;;;;;;5108234;28;27325;-64
2021/05/10 17:59:57;;;;;;;0.98;0.57;;;20.20;63.70;;;;;;5111419;27;27596;-64
2021/05/10 18:05:46;;;;;;;1.15;0.32;;;20.10;63.80;;;;;;5128629;27;27367;-64
2021/05/10 18:08:32;;;;;;;1.33;0.38;;;20.10;65.50;;;;;;5127877;27;27331;-64
2021/05/10 18:11:17;;;;;;;0.25;0.22;;;20.10;65.20;;;;;;5128655;27;27319;-64
2021/05/10 18:14:02;;;;;;;0.32;0.30;;;20.00;64.80;;;;;;5112878;27;27340;-64
2021/05/10 18:16:53;;;;;;;0.68;0.30;;;20.00;65.00;;;;;;5128620;27;27390;-65
2021/05/10 18:19:40;;;;;;;0.30;0.20;;;19.90;64.70;;;;;;5114173;27;26859;-65
2021/05/10 18:22:24;;;;;;;0.45;0.25;;;19.90;64.30;;;;;;5128481;27;27382;-65
2021/05/10 18:25:10;;;;;;;1.23;0.30;;;19.80;64.90;;;;;;5112932;27;27327;-64
2021/05/10 18:27:54;;;;;;;0.82;0.52;;;19.80;64.90;;;;;;5112926;27;27439;-64
2021/05/10 18:30:40;;;;;;;0.45;0.28;;;19.70;64.50;;;;;;5112963;27;27394;-64
2021/05/10 18:33:25;;;;;;;0.20;0.20;;;19.70;65.60;;;;;;5128013;27;27365;-64
2021/05/10 18:36:18;;;;;;;0.70;0.30;;;19.60;67.40;;;;;;5112205;27;27331;-64
2021/05/10 18:39:04;;;;;;;1.15;0.30;;;19.50;67.70;;;;;;5128027;27;27341;-64
2021/05/10 18:41:48;;;;;;;0.22;0.22;;;19.50;70.80;;;;;;5109151;27;27375;-64
2021/05/10 18:44:35;;;;;;;0.40;0.38;;;19.40;70.70;;;;;;5127737;27;27331;-65
2021/05/10 18:47:22;;;;;;;0.85;0.35;;;19.30;71.60;;;;;;5112723;27;27386;-64
2021/05/10 18:50:09;;;;;;;0.63;0.30;;;19.30;72.00;;;;;;5127650;27;27565;-64
2021/05/10 18:52:53;;;;;;;0.50;0.43;;;19.20;72.10;;;;;;5127718;27;27465;-64
2021/05/10 18:55:41;;;;;;;0.63;0.50;;;19.10;72.00;;;;;;5127542;27;27415;-64
2021/05/10 18:58:26;;;;;;;0.55;0.40;;;19.10;71.70;;;;;;5111398;27;27432;-64
2021/05/10 19:01:12;;;;;;;1.33;0.38;;;19.00;72.50;;;;;;5126900;27;27521;-64
2021/05/10 19:03:56;;;;;;;0.90;0.30;;;18.90;73.30;;;;;;5127043;27;27415;-64
2021/05/10 19:06:43;;;;;;;0.95;0.32;;;18.80;73.70;;;;;;5127713;27;27432;-64
2021/05/10 19:09:27;;;;;;;0.40;0.40;;;18.80;74.90;;;;;;5127559;27;27420;-65
2021/05/10 19:12:12;;;;;;;0.77;0.30;;;18.70;74.70;;;;;;5127261;27;27448;-65
2021/05/10 19:14:57;;;;;;;1.15;0.40;;;18.60;74.60;;;;;;5127322;27;27490;-64
2021/05/10 19:17:43;;;;;;;2.85;0.32;;;18.60;75.20;;;;;;5127226;27;27410;-66
2021/05/10 19:20:28;;;;;;;0.73;0.50;;;18.50;76.00;;;;;;5127283;27;28020;-65
2021/05/10 19:23:13;;;;;;;0.50;0.43;;;18.40;75.70;;;;;;5127541;27;27363;-66
2021/05/10 19:25:58;;;;;;;0.50;0.38;;;18.40;75.60;;;;;;5127425;27;26994;-66
2021/05/10 19:28:42;;;;;;;0.75;0.52;;;18.30;76.90;;;;;;5127314;27;27411;-64
2021/05/10 19:31:28;;;;;;;0.43;0.40;;;18.30;77.10;;;;;;5126742;27;27412;-64
2021/05/10 19:34:12;;;;;;;0.60;0.40;;;18.20;77.10;;;;;;5126777;27;27488;-67
2021/05/10 19:36:57;;;;;;;0.60;0.30;;;18.20;76.70;;;;;;5127110;27;27471;-64
2021/05/10 19:39:43;;;;;;;1.27;0.40;;;18.20;76.80;;;;;;5126750;27;27470;-63
2021/05/10 19:42:28;;;;;;;0.40;0.40;;;18.10;77.10;;;;;;5126902;27;27348;-63
2021/05/10 19:45:26;;;;;;;0.60;0.45;;;18.00;77.50;;;;;;5126674;27;27474;-65
2021/05/10 19:57:11;;;;;;;1.02;0.65;;;17.90;78.70;;;;;;5126379;27;27494;-64
2021/05/10 20:00:14;;;;;;;0.80;0.70;;;17.80;79.00;;;;;;5125986;27;27467;-64
2021/05/10 20:05:47;;;;;;;3.67;0.70;;;17.70;79.30;;;;;;5126300;27;27442;-64
2021/05/10 20:08:32;;;;;;;0.52;0.52;;;17.70;79.90;;;;;;5126372;27;27478;-63
2021/05/10 20:11:19;;;;;;;0.88;0.60;;;17.70;79.10;;;;;;5126381;27;27489;-64
2021/05/10 20:14:04;;;;;;;0.60;0.50;;;17.60;79.60;;;;;;5126645;27;27327;-63
2021/05/10 20:16:49;;;;;;;3.30;0.50;;;17.60;79.80;;;;;;5107949;27;27330;-64
2021/05/10 20:19:33;;;;;;;1.40;0.80;;;17.50;80.10;;;;;;5126592;27;27622;-64
2021/05/10 20:22:18;;;;;;;0.98;0.57;;;17.60;79.50;;;;;;5123353;27;27368;-64